createdAt,value
2023-05-03T00:08:35.901Z,100440.91
2023-05-03T00:18:37.311Z,100437.19
2023-05-03T00:28:38.834Z,100421.25
2023-05-03T00:38:40.491Z,100425.13
2023-05-03T00:48:42.022Z,100433.50
2023-05-03T00:58:43.565Z,100428.63
2023-05-03T01:08:49.340Z,100436.69
2023-05-03T01:18:51.653Z,100429.81
2023-05-03T01:28:53.250Z,100417.69
2023-05-03T01:38:54.637Z,100428.13
2023-05-03T01:48:56.153Z,100424.25
2023-05-03T01:58:57.683Z,100436.47
2023-05-03T02:08:59.103Z,100438.66
2023-05-03T02:19:00.660Z,100437.16
2023-05-03T02:29:02.138Z,100451.22
2023-05-03T02:39:03.585Z,100461.94
2023-05-03T02:49:04.961Z,100472.34
2023-05-03T02:59:06.365Z,100458.72
2023-05-03T03:09:07.852Z,100449.69
2023-05-03T03:19:09.496Z,100448.00
2023-05-03T03:29:10.929Z,100432.56
2023-05-03T03:39:12.339Z,100421.28
2023-05-03T03:49:13.709Z,100423.13
2023-05-03T03:59:15.449Z,100423.94
2023-05-03T04:09:17.539Z,100426.47
2023-05-03T04:19:19.240Z,100413.88
2023-05-03T04:29:20.788Z,100397.53
2023-05-03T04:39:22.888Z,100391.34
2023-05-03T04:49:24.255Z,100426.16
2023-05-03T04:59:25.836Z,100434.19
2023-05-03T05:09:28.377Z,100444.28
2023-05-03T05:19:29.909Z,100448.16
2023-05-03T05:29:31.294Z,100457.38
2023-05-03T05:39:32.821Z,100464.38
2023-05-03T05:49:34.239Z,100476.81
2023-05-03T05:59:35.764Z,100484.34
2023-05-03T06:09:37.426Z,100490.88
2023-05-03T06:19:39.169Z,100491.50
2023-05-03T06:29:40.730Z,100501.38
2023-05-03T06:39:42.114Z,100497.41
2023-05-03T06:49:43.658Z,100495.09
2023-05-03T06:59:45.203Z,100502.72
2023-05-03T07:09:46.775Z,100503.16
2023-05-03T07:19:49.438Z,100496.38
2023-05-03T07:29:50.833Z,100502.09
2023-05-03T07:39:52.432Z,100493.19
2023-05-03T07:49:54.161Z,100474.06
2023-05-03T07:59:55.578Z,100459.16
2023-05-03T08:09:58.451Z,100449.31
2023-05-03T08:19:59.905Z,100455.53
2023-05-03T08:30:01.632Z,100463.22
2023-05-03T08:40:05.523Z,100445.47
2023-05-03T08:50:09.145Z,100457.53
2023-05-03T09:00:11.107Z,100443.53
2023-05-03T09:10:24.732Z,100439.97
2023-05-03T09:20:36.686Z,100446.84
2023-05-03T09:30:38.489Z,100426.19
2023-05-03T09:40:46.496Z,100419.03
2023-05-03T09:50:47.911Z,100419.59
2023-05-03T10:00:52.234Z,100413.34
2023-05-03T10:10:54.394Z,100404.44
2023-05-03T10:21:08.572Z,100382.38
2023-05-03T10:31:46.312Z,100361.25
2023-05-03T10:42:03.189Z,100362.03
2023-05-03T10:52:33.637Z,100358.00
2023-05-03T11:02:37.495Z,100342.13
2023-05-03T11:12:38.908Z,100348.09
2023-05-03T11:22:40.281Z,100338.22
2023-05-03T11:32:42.676Z,100335.88
2023-05-03T11:42:54.133Z,100330.16
2023-05-03T11:52:56.033Z,100326.97
2023-05-03T12:02:58.677Z,100317.75
2023-05-03T12:13:01.156Z,100302.94
2023-05-03T12:23:05.448Z,100293.31
2023-05-03T12:33:09.580Z,100293.03
2023-05-03T12:43:11.697Z,100284.03
2023-05-03T12:53:16.878Z,100268.78
2023-05-03T13:03:21.853Z,100250.03
2023-05-03T13:13:26.115Z,100226.47
2023-05-03T13:23:27.720Z,100213.50
2023-05-03T13:33:29.381Z,100200.44
2023-05-03T13:43:30.912Z,100198.47
2023-05-03T13:53:32.326Z,100174.59
2023-05-03T14:03:34.076Z,100157.31
2023-05-03T14:13:53.982Z,100145.00
2023-05-03T14:23:57.475Z,100134.19
2023-05-03T14:33:59.875Z,100119.22
2023-05-03T14:44:02.244Z,100102.16
2023-05-03T14:54:04.076Z,100086.16
2023-05-03T15:04:07.726Z,100076.56
2023-05-03T15:14:09.977Z,100092.16
2023-05-03T15:24:11.437Z,100060.97
2023-05-03T15:34:12.833Z,100056.59
2023-05-03T15:44:14.899Z,100070.75
2023-05-03T15:54:16.339Z,100064.69
2023-05-03T16:04:17.732Z,100060.34
2023-05-03T16:14:19.168Z,100063.44
2023-05-03T16:24:21.345Z,100053.41
2023-05-03T16:34:22.727Z,100053.63
2023-05-03T16:44:24.861Z,100044.44
2023-05-03T16:54:26.562Z,100032.75
2023-05-03T17:04:28.128Z,100026.47
2023-05-03T17:14:29.519Z,100036.78
2023-05-03T17:24:31.248Z,100023.19
2023-05-03T17:34:32.648Z,100025.16
2023-05-03T17:44:34.375Z,100024.47
2023-05-03T17:54:35.987Z,100033.53
2023-05-03T18:04:37.392Z,100025.38
2023-05-03T18:14:38.793Z,100024.69
2023-05-03T18:24:40.207Z,100030.81
2023-05-03T18:34:41.732Z,100030.94
2023-05-03T18:44:43.369Z,100035.88
2023-05-03T18:54:44.895Z,100020.28
2023-05-03T19:04:46.412Z,100034.69
2023-05-03T19:14:47.882Z,100030.06
2023-05-03T19:24:49.272Z,100033.13
2023-05-03T19:34:51.338Z,100032.47
2023-05-03T19:44:52.733Z,100028.63
2023-05-03T19:54:55.134Z,100034.59
2023-05-03T20:04:56.670Z,100033.47
2023-05-03T20:14:58.076Z,100034.91
2023-05-03T20:24:59.481Z,100037.69
2023-05-03T20:35:01.028Z,100041.50
2023-05-03T20:45:02.537Z,100031.91
2023-05-03T20:55:04.013Z,100025.91
2023-05-03T21:05:05.587Z,100026.63
2023-05-03T21:15:07.580Z,100034.09
2023-05-03T21:25:09.308Z,100017.28
2023-05-03T21:35:10.881Z,100013.09
2023-05-03T21:45:12.463Z,99999.00
2023-05-03T21:55:13.867Z,99980.91
2023-05-03T22:05:15.479Z,99977.19
2023-05-03T22:15:17.031Z,99974.88
2023-05-03T22:25:25.401Z,99977.94
2023-05-03T22:35:26.957Z,99974.31
2023-05-03T22:45:28.740Z,99968.47
2023-05-03T22:55:30.294Z,99960.59
2023-05-03T23:05:32.805Z,99963.28
2023-05-03T23:15:34.838Z,99959.94
2023-05-03T23:25:36.224Z,99955.31
2023-05-03T23:35:37.770Z,99945.25
2023-05-03T23:45:39.380Z,99937.56
2023-05-03T23:55:41.290Z,99933.00
